Strona główna
METAR-TAF:

METAR-TAF

Lotnisko :

St. Clair County International Airport

Port Huron, Michigan, Stany Zjednoczone

Szerokość geograficzna: 42-55N, Długość geograficzna: 082-32W, wysokość: 198 m

Aktualna obserwacja pogody

Raport powstał 10 minut temu, godzina 22:35 UTC
Wiatr 4 kt od zachodnio-południowy zachód
Temperatura -3°C
Wilgotność 63%
Ciśnienie 1020 hPa
Widzialność: 16.1 km
Rozproszone chmury na wysokości 1800 ft
Rozproszone chmury na wysokości 2900 ft
Przerywane chmury na wysokości 6000 ft

METAR: KPHN 102235Z AUTO 25004KT 10SM SCT018 SCT029 BKN060 M03/M09 A3012 RMK AO2

czas: 17:45 (22:45 UTC)


TAF: brakujący

Obserwacja i prognoza pogody dla ponad 4000 lotnisk (raport METAR i TAF).

Dostępne stacje oznaczono żółtymi i czerwonymi punktami na mapie.

Najedź kursorem aby zobaczyć nazwę stacji.

Kliknij aby zobaczyć obserwacje i prognozy pogody.

Aby zmienić mapę: kliknij na zielony przycisk z czarnym krzyżykiem, aby powiększyć; na zielony przycisk z myślnikiem, aby pomniejszyć; na zielone strzałki, aby przejść do map sąsiednich.


METAR-TAF: